Terminal Aerodrome Forecast
Issued by NWS

Home | Current Version | Previous Version | Text Only | Print | Product List | Glossary On
Versions: 1 2 3 4 5 6 7 8 9 10 11 12 13
000
FTUS45 KRIW 202336
TAFCPR
TAF
KCPR 202336Z 2100/2124 02007KT P6SM SCT110 BKN200
     FM210200 33007KT P6SM FEW110 BKN150
     FM211000 26006KT P6SM SCT150
     FM211400 02009KT P6SM SCT150=

USA.gov is the U.S. government's official web portal to all federal, state and local government web resources and services.